createdAt,value
2022-08-19T00:02:48.658Z,18.65
2022-08-19T00:05:53.317Z,18.62
2022-08-19T00:08:56.640Z,18.62
2022-08-19T00:12:02.204Z,18.56
2022-08-19T00:15:05.961Z,18.52
2022-08-19T00:18:15.084Z,18.54
2022-08-19T00:21:18.628Z,18.60
2022-08-19T00:24:21.492Z,18.55
2022-08-19T00:27:26.928Z,18.54
2022-08-19T00:30:30.858Z,18.57
2022-08-19T00:33:34.470Z,18.51
2022-08-19T00:36:38.010Z,18.50
2022-08-19T00:39:41.052Z,18.53
2022-08-19T00:42:48.440Z,18.50
2022-08-19T00:45:52.767Z,18.51
2022-08-19T00:48:56.918Z,18.55
2022-08-19T00:52:03.872Z,18.55
2022-08-19T00:55:11.361Z,18.58
2022-08-19T00:58:19.100Z,18.62
2022-08-19T01:01:22.018Z,18.61
2022-08-19T01:04:24.864Z,18.65
2022-08-19T01:07:27.885Z,18.59
2022-08-19T01:10:36.844Z,18.62
2022-08-19T01:13:49.005Z,18.58
2022-08-19T01:16:55.440Z,18.64
2022-08-19T01:19:58.344Z,18.59
2022-08-19T01:23:03.117Z,18.53
2022-08-19T01:26:06.180Z,18.53
2022-08-19T01:29:11.645Z,18.50
2022-08-19T01:32:33.670Z,18.48
2022-08-19T01:35:45.595Z,18.47
2022-08-19T01:39:01.639Z,18.49
2022-08-19T01:42:06.219Z,18.45
2022-08-19T01:45:10.340Z,18.51
2022-08-19T01:48:13.790Z,18.45
2022-08-19T01:51:16.652Z,18.48
2022-08-19T01:54:22.847Z,18.46
2022-08-19T01:57:30.303Z,18.42
2022-08-19T02:00:34.811Z,18.42
2022-08-19T02:03:37.596Z,18.53
2022-08-19T02:06:40.919Z,18.49
2022-08-19T02:09:45.086Z,18.54
2022-08-19T02:12:48.034Z,18.48
2022-08-19T02:15:51.043Z,18.42
2022-08-19T02:18:53.867Z,18.42
2022-08-19T02:21:56.716Z,18.44
2022-08-19T02:25:01.124Z,18.42
2022-08-19T02:28:05.633Z,18.45
2022-08-19T02:31:11.819Z,18.47
2022-08-19T02:34:14.663Z,18.48
2022-08-19T02:37:31.418Z,18.51
2022-08-19T02:40:39.305Z,18.61
2022-08-19T02:44:02.752Z,18.61
2022-08-19T02:47:05.945Z,18.65
2022-08-19T02:50:09.630Z,18.71
2022-08-19T02:53:13.021Z,18.69
2022-08-19T02:56:18.731Z,18.69
2022-08-19T02:59:22.895Z,18.70
2022-08-19T03:02:26.204Z,18.69
2022-08-19T03:05:55.828Z,18.63
2022-08-19T03:08:52.464Z,18.59
2022-08-19T03:11:56.802Z,18.62
2022-08-19T03:15:00.032Z,18.67
2022-08-19T03:18:03.123Z,18.67
2022-08-19T03:21:06.943Z,18.64
2022-08-19T03:24:16.685Z,18.62
2022-08-19T03:27:20.892Z,18.61
2022-08-19T03:30:24.071Z,18.57
2022-08-19T03:33:28.755Z,18.61
2022-08-19T03:36:31.904Z,18.67
2022-08-19T03:39:35.933Z,18.65
2022-08-19T03:42:48.616Z,18.61
2022-08-19T03:46:05.213Z,18.69
2022-08-19T03:49:09.692Z,18.68
2022-08-19T03:52:13.186Z,18.67
2022-08-19T03:55:16.731Z,18.74
2022-08-19T03:58:21.257Z,18.77
2022-08-19T04:01:30.361Z,18.71
2022-08-19T04:04:39.606Z,18.64
2022-08-19T04:07:42.796Z,18.68
2022-08-19T04:10:45.628Z,18.70
2022-08-19T04:13:52.096Z,18.66
2022-08-19T04:16:55.900Z,18.59
2022-08-19T04:19:58.923Z,18.54
2022-08-19T04:23:03.556Z,18.61
2022-08-19T04:26:06.399Z,18.60
2022-08-19T04:29:17.643Z,18.53
2022-08-19T04:32:20.506Z,18.55
2022-08-19T04:35:25.025Z,18.54
2022-08-19T04:38:27.916Z,18.52
2022-08-19T04:41:49.036Z,18.48
2022-08-19T04:44:53.468Z,18.46
2022-08-19T04:48:26.432Z,18.50
2022-08-19T04:51:21.692Z,18.53
2022-08-19T04:54:38.250Z,18.51
2022-08-19T04:57:42.249Z,18.51
2022-08-19T05:00:46.413Z,18.49
2022-08-19T05:03:49.390Z,18.41
2022-08-19T05:06:54.351Z,18.41
2022-08-19T05:10:03.498Z,18.39
2022-08-19T05:13:06.558Z,18.37
2022-08-19T05:16:12.553Z,18.37
2022-08-19T05:19:33.606Z,18.41
2022-08-19T05:22:39.459Z,18.41
2022-08-19T05:25:42.839Z,18.38
2022-08-19T05:28:47.282Z,18.44
2022-08-19T05:31:52.516Z,18.45
2022-08-19T05:34:56.197Z,18.47
2022-08-19T05:37:59.244Z,18.44
2022-08-19T05:41:02.099Z,18.47
2022-08-19T05:44:10.225Z,18.43
2022-08-19T05:47:16.183Z,18.45
2022-08-19T05:50:19.090Z,18.52
2022-08-19T05:53:21.965Z,18.51
2022-08-19T05:56:24.765Z,18.49
2022-08-19T05:59:27.585Z,18.54
2022-08-19T06:02:32.403Z,18.56
2022-08-19T06:05:42.348Z,18.50
2022-08-19T06:08:54.682Z,18.51
2022-08-19T06:12:00.900Z,18.59
2022-08-19T06:15:08.150Z,18.56
2022-08-19T06:18:12.794Z,18.58
2022-08-19T06:21:15.735Z,18.58
2022-08-19T06:24:21.697Z,18.59
2022-08-19T06:27:25.133Z,18.56
2022-08-19T06:30:28.565Z,18.61
2022-08-19T06:33:32.716Z,18.62
2022-08-19T06:36:38.676Z,18.61
2022-08-19T06:39:44.346Z,18.61
2022-08-19T06:42:54.432Z,18.59
2022-08-19T06:45:57.538Z,18.59
2022-08-19T06:49:03.368Z,18.66
2022-08-19T06:52:07.555Z,18.62
2022-08-19T06:55:10.822Z,18.69
2022-08-19T06:58:15.206Z,18.59
2022-08-19T07:01:18.012Z,18.54
2022-08-19T07:04:27.254Z,18.58
2022-08-19T07:07:30.108Z,18.65
2022-08-19T07:10:33.857Z,18.68
2022-08-19T07:13:37.879Z,18.60
2022-08-19T07:16:43.050Z,18.52
2022-08-19T07:19:47.441Z,18.62
2022-08-19T07:22:50.395Z,18.55
2022-08-19T07:25:53.460Z,18.54
2022-08-19T07:28:58.533Z,18.54
2022-08-19T07:32:02.731Z,18.61
2022-08-19T07:35:08.315Z,18.64
2022-08-19T07:38:11.444Z,18.69
2022-08-19T07:41:15.947Z,18.66
2022-08-19T07:44:21.127Z,18.60
2022-08-19T07:47:49.300Z,18.67
2022-08-19T07:50:49.449Z,18.72
2022-08-19T07:53:52.649Z,18.69
2022-08-19T07:56:55.855Z,18.67
2022-08-19T07:59:58.642Z,18.64
2022-08-19T08:03:01.753Z,18.65
2022-08-19T08:06:24.636Z,18.70
2022-08-19T08:09:32.284Z,18.75
2022-08-19T08:12:41.586Z,18.65
2022-08-19T08:15:45.639Z,18.75
2022-08-19T08:18:50.573Z,18.69
2022-08-19T08:22:00.078Z,18.57
2022-08-19T08:25:06.753Z,18.57
2022-08-19T08:28:11.224Z,18.53
2022-08-19T08:31:14.306Z,18.60
2022-08-19T08:34:17.166Z,18.52
2022-08-19T08:37:23.157Z,18.54
2022-08-19T08:40:32.112Z,18.56
2022-08-19T08:43:37.106Z,18.58
2022-08-19T08:46:44.599Z,18.60
2022-08-19T08:49:52.806Z,18.63
2022-08-19T08:52:59.293Z,18.58
2022-08-19T08:56:05.800Z,18.65
2022-08-19T08:59:18.178Z,18.58
2022-08-19T09:02:21.371Z,18.67
2022-08-19T09:05:28.760Z,18.63
2022-08-19T09:08:51.334Z,18.65
2022-08-19T09:12:07.150Z,18.60
2022-08-19T09:15:17.222Z,18.63
2022-08-19T09:18:20.008Z,18.59
2022-08-19T09:21:30.382Z,18.64
2022-08-19T09:24:37.555Z,18.64
2022-08-19T09:27:43.631Z,18.65
2022-08-19T09:30:46.714Z,18.67
2022-08-19T09:33:52.317Z,18.69
2022-08-19T09:36:56.474Z,18.80
2022-08-19T09:40:01.122Z,18.83
2022-08-19T09:43:13.173Z,18.88
2022-08-19T09:46:18.374Z,18.88
2022-08-19T09:49:24.395Z,18.94
2022-08-19T09:52:32.818Z,19.05
2022-08-19T09:55:37.232Z,19.20
2022-08-19T09:58:40.991Z,19.15
2022-08-19T10:01:44.460Z,19.24
2022-08-19T10:05:06.435Z,19.19
2022-08-19T10:08:13.552Z,19.07
2022-08-19T10:11:27.546Z,18.98
2022-08-19T10:14:37.854Z,18.97
2022-08-19T10:17:42.227Z,19.01
2022-08-19T10:20:53.514Z,18.99
2022-08-19T10:23:58.635Z,19.03
2022-08-19T10:27:04.714Z,19.02
2022-08-19T10:30:10.221Z,19.05
2022-08-19T10:33:38.301Z,19.07
2022-08-19T10:36:55.522Z,19.10
2022-08-19T10:39:59.636Z,19.04
2022-08-19T10:43:03.966Z,19.08
2022-08-19T10:46:13.935Z,19.03
2022-08-19T10:49:17.180Z,19.02
2022-08-19T10:52:34.867Z,18.97
2022-08-19T10:55:59.815Z,18.82
2022-08-19T10:59:04.960Z,18.66
2022-08-19T11:02:11.045Z,18.58
2022-08-19T11:05:15.704Z,18.45
2022-08-19T11:08:23.385Z,18.50
2022-08-19T11:11:27.205Z,18.53
2022-08-19T11:14:34.139Z,18.44
2022-08-19T11:17:41.021Z,18.38
2022-08-19T11:20:43.853Z,18.32
2022-08-19T11:23:47.795Z,18.26
2022-08-19T11:26:53.652Z,18.23
2022-08-19T11:29:57.985Z,18.12
2022-08-19T11:33:02.052Z,17.97
2022-08-19T11:36:05.454Z,17.90
2022-08-19T11:39:10.597Z,17.76
2022-08-19T11:42:30.565Z,17.75
2022-08-19T11:45:35.042Z,17.75
2022-08-19T11:48:38.984Z,17.71
2022-08-19T11:51:43.898Z,17.73
2022-08-19T11:54:46.854Z,17.71
2022-08-19T11:57:49.768Z,17.72
2022-08-19T12:00:54.563Z,17.73
2022-08-19T12:03:58.582Z,17.63
2022-08-19T12:07:01.444Z,17.65
2022-08-19T12:10:04.948Z,17.67
2022-08-19T12:13:08.718Z,17.68
2022-08-19T12:16:15.223Z,17.65
2022-08-19T12:19:22.352Z,17.68
2022-08-19T12:22:25.578Z,17.72
2022-08-19T12:25:28.802Z,17.75
2022-08-19T12:28:32.532Z,17.72
2022-08-19T12:31:36.748Z,17.72
2022-08-19T12:34:39.741Z,17.75
2022-08-19T12:37:45.364Z,17.74
2022-08-19T12:41:00.512Z,17.80
2022-08-19T12:44:03.953Z,17.86
2022-08-19T12:47:14.312Z,17.77
2022-08-19T12:50:18.353Z,17.91
2022-08-19T12:53:23.959Z,17.99
2022-08-19T12:56:27.350Z,17.94
2022-08-19T12:59:30.200Z,18.00
2022-08-19T13:02:38.940Z,18.07
2022-08-19T13:05:45.046Z,18.17
2022-08-19T13:08:48.103Z,18.17
2022-08-19T13:11:51.266Z,18.16
2022-08-19T13:14:57.351Z,18.18
2022-08-19T13:18:01.587Z,18.14
2022-08-19T13:21:06.186Z,18.21
2022-08-19T13:24:09.165Z,18.29
2022-08-19T13:27:12.389Z,18.22
2022-08-19T13:30:34.962Z,18.31
2022-08-19T13:33:39.574Z,18.38
2022-08-19T13:36:42.631Z,18.34
2022-08-19T13:39:46.119Z,18.37
2022-08-19T13:42:51.483Z,18.36
2022-08-19T13:45:57.823Z,18.41
2022-08-19T13:49:02.362Z,18.37
2022-08-19T13:52:06.430Z,18.37
2022-08-19T13:55:11.952Z,18.44
2022-08-19T13:58:16.039Z,18.38
2022-08-19T14:01:24.342Z,18.29
2022-08-19T14:04:29.040Z,18.32
2022-08-19T14:07:31.798Z,18.27
2022-08-19T14:10:34.753Z,18.26
2022-08-19T14:13:38.150Z,18.26
2022-08-19T14:16:41.810Z,18.27
2022-08-19T14:19:48.261Z,18.33
2022-08-19T14:22:51.309Z,18.29
2022-08-19T14:26:00.809Z,18.27
2022-08-19T14:29:06.263Z,18.26
2022-08-19T14:32:11.023Z,18.26
2022-08-19T14:35:22.177Z,18.28
2022-08-19T14:38:31.479Z,18.26
2022-08-19T14:41:34.653Z,18.38
2022-08-19T14:44:37.837Z,18.34
2022-08-19T14:47:41.108Z,18.32
2022-08-19T14:50:45.508Z,18.42
2022-08-19T14:53:50.596Z,18.42
2022-08-19T14:56:53.717Z,18.46
2022-08-19T14:59:58.047Z,18.49
2022-08-19T15:03:00.934Z,18.46
2022-08-19T15:06:07.070Z,18.43
2022-08-19T15:09:10.339Z,18.45
2022-08-19T15:12:13.144Z,18.38
2022-08-19T15:15:25.113Z,18.37
2022-08-19T15:18:28.122Z,18.42
2022-08-19T15:21:33.283Z,18.42
2022-08-19T15:24:36.296Z,18.38
2022-08-19T15:27:51.329Z,18.39
2022-08-19T15:30:54.633Z,18.42
2022-08-19T15:33:58.858Z,18.49
2022-08-19T15:37:04.677Z,18.53
2022-08-19T15:40:09.717Z,18.59
2022-08-19T15:43:12.774Z,18.62
2022-08-19T15:46:18.985Z,18.58
2022-08-19T15:49:21.833Z,18.56
2022-08-19T15:52:26.509Z,18.52
2022-08-19T15:55:34.577Z,18.56
2022-08-19T15:58:56.217Z,18.54
2022-08-19T16:02:16.652Z,18.50
2022-08-19T16:05:41.061Z,18.49
2022-08-19T16:08:49.055Z,18.42
2022-08-19T16:11:56.757Z,18.42
2022-08-19T16:15:00.302Z,18.41
2022-08-19T16:18:04.434Z,18.38
2022-08-19T16:21:08.107Z,18.39
2022-08-19T16:24:14.184Z,18.42
2022-08-19T16:27:18.615Z,18.38
2022-08-19T16:30:21.507Z,18.38
2022-08-19T16:33:27.232Z,18.38
2022-08-19T16:36:31.363Z,18.42
2022-08-19T16:39:35.720Z,18.45
2022-08-19T16:42:39.828Z,18.46
2022-08-19T16:45:43.355Z,18.44
2022-08-19T16:48:47.807Z,18.45
2022-08-19T16:51:50.725Z,18.42
2022-08-19T16:54:55.617Z,18.39
2022-08-19T16:57:58.481Z,18.42
2022-08-19T17:01:04.246Z,18.49
2022-08-19T17:04:07.271Z,18.53
2022-08-19T17:07:10.860Z,18.47
2022-08-19T17:10:15.106Z,18.47
2022-08-19T17:13:18.050Z,18.42
2022-08-19T17:16:25.006Z,18.48
2022-08-19T17:19:28.419Z,18.45
2022-08-19T17:22:31.205Z,18.45
2022-08-19T17:25:35.886Z,18.46
2022-08-19T17:28:38.676Z,18.42
2022-08-19T17:31:41.449Z,18.42
2022-08-19T17:34:44.283Z,18.50
2022-08-19T17:37:47.754Z,18.46
2022-08-19T17:40:52.715Z,18.48
2022-08-19T17:43:58.754Z,18.54
2022-08-19T17:47:01.532Z,18.59
2022-08-19T17:50:05.414Z,18.62
2022-08-19T17:53:08.405Z,18.57
2022-08-19T17:56:18.042Z,18.53
2022-08-19T17:59:20.950Z,18.52
2022-08-19T18:02:28.715Z,18.42
2022-08-19T18:05:37.069Z,18.39
2022-08-19T18:08:40.045Z,18.51
2022-08-19T18:11:44.852Z,18.50
2022-08-19T18:14:52.521Z,18.55
2022-08-19T18:17:56.355Z,18.55
2022-08-19T18:20:59.312Z,18.58
2022-08-19T18:24:02.220Z,18.67
2022-08-19T18:27:06.904Z,18.67
2022-08-19T18:30:11.372Z,18.74
2022-08-19T18:33:15.412Z,18.60
2022-08-19T18:36:31.982Z,18.67
2022-08-19T18:39:58.102Z,18.76
2022-08-19T18:43:20.098Z,18.65
2022-08-19T18:46:40.496Z,18.74
2022-08-19T18:49:44.064Z,18.82
2022-08-19T18:52:48.710Z,18.64
2022-08-19T18:55:55.364Z,18.64
2022-08-19T18:59:02.933Z,18.59
2022-08-19T19:02:10.093Z,18.68
2022-08-19T19:05:14.475Z,18.58
2022-08-19T19:08:17.410Z,18.46
2022-08-19T19:11:24.184Z,18.46
2022-08-19T19:14:48.559Z,18.55
2022-08-19T19:17:52.048Z,18.59
2022-08-19T19:20:55.192Z,18.65
2022-08-19T19:24:01.019Z,18.62
2022-08-19T19:27:08.462Z,18.58
2022-08-19T19:30:13.907Z,18.54
2022-08-19T19:33:16.722Z,18.43
2022-08-19T19:36:19.641Z,18.38
2022-08-19T19:39:30.648Z,18.34
2022-08-19T19:42:48.052Z,18.41
2022-08-19T19:45:52.325Z,18.38
2022-08-19T19:48:59.856Z,18.49
2022-08-19T19:52:03.121Z,18.53
2022-08-19T19:55:06.657Z,18.58
2022-08-19T19:58:10.127Z,18.60
2022-08-19T20:01:21.078Z,18.63
2022-08-19T20:04:28.149Z,18.51
2022-08-19T20:07:44.932Z,18.47
2022-08-19T20:10:47.805Z,18.37
2022-08-19T20:13:50.577Z,18.31
2022-08-19T20:16:56.320Z,18.37
2022-08-19T20:19:59.350Z,18.27
2022-08-19T20:23:02.396Z,18.39
2022-08-19T20:26:06.500Z,18.42
2022-08-19T20:29:39.391Z,18.43
2022-08-19T20:32:39.845Z,18.41
2022-08-19T20:35:44.392Z,18.45
2022-08-19T20:38:47.234Z,18.46
2022-08-19T20:41:50.875Z,18.38
2022-08-19T20:44:53.829Z,18.42
2022-08-19T20:48:03.826Z,18.32
2022-08-19T20:51:31.427Z,18.30
2022-08-19T20:57:59.229Z,18.35
2022-08-19T21:01:03.689Z,18.27
2022-08-19T21:04:07.840Z,18.34
2022-08-19T21:07:10.573Z,18.37
2022-08-19T21:10:13.401Z,18.27
2022-08-19T21:13:17.732Z,18.19
2022-08-19T21:16:21.717Z,18.13
2022-08-19T21:19:25.865Z,18.16
2022-08-19T21:22:28.711Z,18.22
2022-08-19T21:25:31.784Z,18.03
2022-08-19T21:28:37.361Z,18.05
2022-08-19T21:31:40.152Z,17.98
2022-08-19T21:34:47.422Z,17.90
2022-08-19T21:37:50.390Z,17.96
2022-08-19T21:40:53.259Z,18.04
2022-08-19T21:43:56.086Z,18.02
2022-08-19T21:46:58.893Z,17.97
2022-08-19T21:50:02.964Z,18.07
2022-08-19T21:53:05.787Z,18.11
2022-08-19T21:56:08.808Z,18.14
2022-08-19T21:59:11.633Z,18.17
2022-08-19T22:02:22.096Z,18.19
2022-08-19T22:05:26.873Z,18.23
2022-08-19T22:08:31.439Z,18.15
2022-08-19T22:11:34.602Z,18.12
2022-08-19T22:14:38.039Z,18.13
2022-08-19T22:17:41.940Z,18.08
2022-08-19T22:20:47.822Z,18.02
2022-08-19T22:23:50.568Z,17.98
2022-08-19T22:26:55.749Z,18.03
2022-08-19T22:29:58.627Z,18.07
2022-08-19T22:33:04.394Z,18.09
2022-08-19T22:36:09.367Z,18.13
2022-08-19T22:39:12.189Z,18.18
2022-08-19T22:42:19.845Z,18.13
2022-08-19T22:45:23.838Z,18.00
2022-08-19T22:48:30.776Z,17.99
2022-08-19T22:51:53.041Z,17.95
2022-08-19T22:55:00.050Z,17.91
2022-08-19T22:58:02.967Z,17.89
2022-08-19T23:01:06.965Z,17.98
2022-08-19T23:04:10.015Z,18.05
2022-08-19T23:07:14.571Z,18.11
2022-08-19T23:10:18.276Z,17.99
2022-08-19T23:13:31.732Z,17.90
2022-08-19T23:16:38.094Z,17.81
2022-08-19T23:19:42.241Z,17.91
2022-08-19T23:22:49.690Z,18.00
2022-08-19T23:25:53.544Z,18.01
2022-08-19T23:29:13.994Z,18.05
2022-08-19T23:32:17.635Z,17.95
2022-08-19T23:35:21.140Z,17.85
2022-08-19T23:38:25.983Z,17.91
2022-08-19T23:41:28.849Z,17.99
2022-08-19T23:44:31.639Z,18.04
2022-08-19T23:47:36.880Z,17.97
2022-08-19T23:50:45.482Z,17.75
2022-08-19T23:53:49.666Z,17.68
2022-08-19T23:56:53.782Z,17.65
2022-08-19T23:59:56.892Z,17.51
